sensor_id;sensor_type;location;lat;lon;timestamp;P1;durP1;ratioP1;P2;durP2;ratioP2
25511;SDS011;13414;44.534;18.700;2024-03-23T00:52:25;73.90;;;49.08;;
25511;SDS011;13414;44.534;18.700;2024-03-23T00:54:51;70.93;;;44.00;;
25511;SDS011;13414;44.534;18.700;2024-03-23T00:57:18;69.15;;;42.05;;
25511;SDS011;13414;44.534;18.700;2024-03-23T00:59:45;61.35;;;38.47;;
25511;SDS011;13414;44.534;18.700;2024-03-23T01:02:12;54.63;;;36.97;;
25511;SDS011;13414;44.534;18.700;2024-03-23T01:04:38;58.88;;;36.42;;
25511;SDS011;13414;44.534;18.700;2024-03-23T01:07:06;60.83;;;36.65;;
25511;SDS011;13414;44.534;18.700;2024-03-23T01:09:34;63.72;;;36.95;;
25511;SDS011;13414;44.534;18.700;2024-03-23T01:12:04;68.82;;;40.15;;
25511;SDS011;13414;44.534;18.700;2024-03-23T01:14:30;71.28;;;41.17;;
25511;SDS011;13414;44.534;18.700;2024-03-23T01:16:58;67.55;;;40.30;;
25511;SDS011;13414;44.534;18.700;2024-03-23T01:19:24;68.05;;;41.28;;
25511;SDS011;13414;44.534;18.700;2024-03-23T01:21:52;72.05;;;40.83;;
25511;SDS011;13414;44.534;18.700;2024-03-23T01:24:18;81.95;;;44.78;;
25511;SDS011;13414;44.534;18.700;2024-03-23T01:26:47;77.20;;;43.47;;
25511;SDS011;13414;44.534;18.700;2024-03-23T01:29:13;75.63;;;41.97;;
25511;SDS011;13414;44.534;18.700;2024-03-23T01:31:42;75.38;;;42.20;;
25511;SDS011;13414;44.534;18.700;2024-03-23T01:34:08;69.10;;;41.67;;
25511;SDS011;13414;44.534;18.700;2024-03-23T01:36:36;71.13;;;40.85;;
25511;SDS011;13414;44.534;18.700;2024-03-23T01:39:02;71.35;;;43.65;;
25511;SDS011;13414;44.534;18.700;2024-03-23T01:41:30;74.50;;;44.80;;
25511;SDS011;13414;44.534;18.700;2024-03-23T01:43:59;72.53;;;47.13;;
25511;SDS011;13414;44.534;18.700;2024-03-23T01:46:32;75.10;;;48.65;;
25511;SDS011;13414;44.534;18.700;2024-03-23T01:48:59;73.30;;;47.95;;
25511;SDS011;13414;44.534;18.700;2024-03-23T01:51:27;75.28;;;44.20;;
25511;SDS011;13414;44.534;18.700;2024-03-23T01:53:54;68.85;;;41.92;;
25511;SDS011;13414;44.534;18.700;2024-03-23T01:56:26;69.10;;;42.25;;
25511;SDS011;13414;44.534;18.700;2024-03-23T01:58:52;73.15;;;45.38;;
25511;SDS011;13414;44.534;18.700;2024-03-23T02:01:21;70.18;;;45.22;;
25511;SDS011;13414;44.534;18.700;2024-03-23T02:03:48;70.63;;;44.58;;
25511;SDS011;13414;44.534;18.700;2024-03-23T02:06:15;70.38;;;42.92;;
25511;SDS011;13414;44.534;18.700;2024-03-23T02:08:43;66.70;;;42.97;;
25511;SDS011;13414;44.534;18.700;2024-03-23T02:11:11;69.32;;;44.70;;
25511;SDS011;13414;44.534;18.700;2024-03-23T02:13:38;66.55;;;42.80;;
25511;SDS011;13414;44.534;18.700;2024-03-23T02:16:06;72.00;;;44.45;;
25511;SDS011;13414;44.534;18.700;2024-03-23T02:18:34;71.65;;;42.22;;
25511;SDS011;13414;44.534;18.700;2024-03-23T02:21:01;63.90;;;41.20;;
25511;SDS011;13414;44.534;18.700;2024-03-23T02:23:29;68.93;;;42.97;;
25511;SDS011;13414;44.534;18.700;2024-03-23T02:25:57;67.57;;;41.25;;
25511;SDS011;13414;44.534;18.700;2024-03-23T02:28:23;65.72;;;39.85;;
25511;SDS011;13414;44.534;18.700;2024-03-23T02:30:51;62.70;;;38.58;;
25511;SDS011;13414;44.534;18.700;2024-03-23T02:33:18;63.75;;;38.92;;
25511;SDS011;13414;44.534;18.700;2024-03-23T02:35:45;63.28;;;36.95;;
25511;SDS011;13414;44.534;18.700;2024-03-23T02:38:12;64.68;;;38.38;;
25511;SDS011;13414;44.534;18.700;2024-03-23T02:40:41;64.18;;;38.00;;
25511;SDS011;13414;44.534;18.700;2024-03-23T02:43:07;68.65;;;39.53;;
25511;SDS011;13414;44.534;18.700;2024-03-23T02:45:35;69.40;;;39.40;;
25511;SDS011;13414;44.534;18.700;2024-03-23T02:48:02;70.82;;;41.25;;
25511;SDS011;13414;44.534;18.700;2024-03-23T02:50:29;60.50;;;35.75;;
25511;SDS011;13414;44.534;18.700;2024-03-23T02:52:57;63.63;;;37.45;;
25511;SDS011;13414;44.534;18.700;2024-03-23T02:55:23;58.40;;;33.55;;
25511;SDS011;13414;44.534;18.700;2024-03-23T02:57:52;67.60;;;38.33;;
25511;SDS011;13414;44.534;18.700;2024-03-23T03:00:19;68.50;;;40.00;;
25511;SDS011;13414;44.534;18.700;2024-03-23T03:02:46;65.72;;;38.20;;
25511;SDS011;13414;44.534;18.700;2024-03-23T03:05:13;55.78;;;33.83;;
25511;SDS011;13414;44.534;18.700;2024-03-23T03:07:40;59.17;;;35.78;;
25511;SDS011;13414;44.534;18.700;2024-03-23T03:10:07;53.08;;;34.05;;
25511;SDS011;13414;44.534;18.700;2024-03-23T03:12:36;48.85;;;34.60;;
25511;SDS011;13414;44.534;18.700;2024-03-23T03:15:05;58.88;;;37.85;;
25511;SDS011;13414;44.534;18.700;2024-03-23T03:17:33;59.58;;;38.80;;
25511;SDS011;13414;44.534;18.700;2024-03-23T03:20:00;59.88;;;39.30;;
25511;SDS011;13414;44.534;18.700;2024-03-23T03:22:30;60.58;;;40.83;;
25511;SDS011;13414;44.534;18.700;2024-03-23T03:24:56;55.75;;;37.08;;
25511;SDS011;13414;44.534;18.700;2024-03-23T03:27:25;58.15;;;39.30;;
25511;SDS011;13414;44.534;18.700;2024-03-23T03:29:51;62.35;;;39.30;;
25511;SDS011;13414;44.534;18.700;2024-03-23T03:32:20;64.80;;;41.47;;
25511;SDS011;13414;44.534;18.700;2024-03-23T03:34:47;63.63;;;42.22;;
25511;SDS011;13414;44.534;18.700;2024-03-23T03:37:15;62.50;;;40.92;;
25511;SDS011;13414;44.534;18.700;2024-03-23T03:39:41;65.30;;;40.33;;
25511;SDS011;13414;44.534;18.700;2024-03-23T03:42:09;72.47;;;42.28;;
25511;SDS011;13414;44.534;18.700;2024-03-23T03:44:36;66.88;;;43.35;;
25511;SDS011;13414;44.534;18.700;2024-03-23T03:47:03;96.03;;;59.55;;
25511;SDS011;13414;44.534;18.700;2024-03-23T03:49:32;57.65;;;37.97;;
25511;SDS011;13414;44.534;18.700;2024-03-23T03:51:59;50.42;;;34.53;;
25511;SDS011;13414;44.534;18.700;2024-03-23T03:54:27;47.00;;;33.20;;
25511;SDS011;13414;44.534;18.700;2024-03-23T03:56:54;56.83;;;38.33;;
25511;SDS011;13414;44.534;18.700;2024-03-23T03:59:21;56.13;;;37.03;;
25511;SDS011;13414;44.534;18.700;2024-03-23T04:01:48;57.15;;;37.80;;
25511;SDS011;13414;44.534;18.700;2024-03-23T04:04:15;54.13;;;35.88;;
25511;SDS011;13414;44.534;18.700;2024-03-23T04:06:44;81.35;;;50.25;;
25511;SDS011;13414;44.534;18.700;2024-03-23T04:09:10;55.92;;;36.42;;
25511;SDS011;13414;44.534;18.700;2024-03-23T04:11:38;54.80;;;35.67;;
25511;SDS011;13414;44.534;18.700;2024-03-23T04:14:04;63.67;;;41.72;;
25511;SDS011;13414;44.534;18.700;2024-03-23T04:16:33;70.93;;;46.40;;
25511;SDS011;13414;44.534;18.700;2024-03-23T04:19:00;68.57;;;46.75;;
25511;SDS011;13414;44.534;18.700;2024-03-23T04:21:29;58.20;;;41.50;;
25511;SDS011;13414;44.534;18.700;2024-03-23T04:23:57;53.67;;;36.70;;
25511;SDS011;13414;44.534;18.700;2024-03-23T04:26:24;51.10;;;34.65;;
25511;SDS011;13414;44.534;18.700;2024-03-23T04:28:51;51.05;;;33.03;;
25511;SDS011;13414;44.534;18.700;2024-03-23T04:31:18;47.67;;;33.72;;
25511;SDS011;13414;44.534;18.700;2024-03-23T04:33:44;53.00;;;33.85;;
25511;SDS011;13414;44.534;18.700;2024-03-23T04:36:12;55.75;;;35.30;;
25511;SDS011;13414;44.534;18.700;2024-03-23T04:38:38;53.72;;;36.30;;
25511;SDS011;13414;44.534;18.700;2024-03-23T04:41:08;58.53;;;38.60;;
25511;SDS011;13414;44.534;18.700;2024-03-23T04:43:37;51.30;;;35.08;;
25511;SDS011;13414;44.534;18.700;2024-03-23T04:46:05;57.30;;;36.75;;
25511;SDS011;13414;44.534;18.700;2024-03-23T04:48:33;52.80;;;34.85;;
25511;SDS011;13414;44.534;18.700;2024-03-23T04:51:00;47.92;;;30.90;;
25511;SDS011;13414;44.534;18.700;2024-03-23T04:53:27;42.10;;;29.40;;
25511;SDS011;13414;44.534;18.700;2024-03-23T04:55:55;49.85;;;30.52;;
25511;SDS011;13414;44.534;18.700;2024-03-23T04:58:25;45.45;;;28.40;;
25511;SDS011;13414;44.534;18.700;2024-03-23T05:00:55;49.88;;;30.30;;
25511;SDS011;13414;44.534;18.700;2024-03-23T05:03:23;48.42;;;31.42;;
25511;SDS011;13414;44.534;18.700;2024-03-23T05:05:49;48.60;;;29.40;;
25511;SDS011;13414;44.534;18.700;2024-03-23T05:08:17;48.65;;;30.92;;
25511;SDS011;13414;44.534;18.700;2024-03-23T05:10:43;50.42;;;30.80;;
25511;SDS011;13414;44.534;18.700;2024-03-23T05:13:11;53.38;;;31.90;;
25511;SDS011;13414;44.534;18.700;2024-03-23T05:15:39;58.28;;;32.05;;
25511;SDS011;13414;44.534;18.700;2024-03-23T05:18:06;50.83;;;29.92;;
25511;SDS011;13414;44.534;18.700;2024-03-23T05:20:33;57.33;;;32.00;;
25511;SDS011;13414;44.534;18.700;2024-03-23T05:23:00;53.17;;;31.27;;
25511;SDS011;13414;44.534;18.700;2024-03-23T05:25:26;56.97;;;32.53;;
25511;SDS011;13414;44.534;18.700;2024-03-23T05:27:54;68.05;;;37.50;;
25511;SDS011;13414;44.534;18.700;2024-03-23T05:30:20;64.10;;;37.05;;
25511;SDS011;13414;44.534;18.700;2024-03-23T05:32:50;55.33;;;36.30;;
25511;SDS011;13414;44.534;18.700;2024-03-23T05:35:16;52.00;;;33.38;;
25511;SDS011;13414;44.534;18.700;2024-03-23T05:37:44;53.45;;;35.72;;
25511;SDS011;13414;44.534;18.700;2024-03-23T05:40:11;57.45;;;33.83;;
25511;SDS011;13414;44.534;18.700;2024-03-23T05:42:40;57.63;;;33.28;;
25511;SDS011;13414;44.534;18.700;2024-03-23T05:45:07;45.17;;;27.85;;
25511;SDS011;13414;44.534;18.700;2024-03-23T05:47:36;46.80;;;29.02;;
25511;SDS011;13414;44.534;18.700;2024-03-23T05:50:04;50.53;;;30.58;;
25511;SDS011;13414;44.534;18.700;2024-03-23T05:52:34;50.78;;;30.90;;
25511;SDS011;13414;44.534;18.700;2024-03-23T05:55:01;46.13;;;29.80;;
25511;SDS011;13414;44.534;18.700;2024-03-23T05:57:28;54.05;;;32.53;;
25511;SDS011;13414;44.534;18.700;2024-03-23T05:59:55;57.05;;;33.45;;
25511;SDS011;13414;44.534;18.700;2024-03-23T06:02:22;55.38;;;34.30;;
25511;SDS011;13414;44.534;18.700;2024-03-23T06:04:49;50.75;;;32.30;;
25511;SDS011;13414;44.534;18.700;2024-03-23T06:07:18;50.20;;;31.77;;
25511;SDS011;13414;44.534;18.700;2024-03-23T06:09:45;48.83;;;31.42;;
25511;SDS011;13414;44.534;18.700;2024-03-23T06:12:12;47.40;;;30.23;;
25511;SDS011;13414;44.534;18.700;2024-03-23T06:14:39;50.50;;;30.98;;
25511;SDS011;13414;44.534;18.700;2024-03-23T06:17:06;46.60;;;29.52;;
25511;SDS011;13414;44.534;18.700;2024-03-23T06:19:33;47.00;;;30.80;;
25511;SDS011;13414;44.534;18.700;2024-03-23T06:22:01;51.00;;;31.70;;
25511;SDS011;13414;44.534;18.700;2024-03-23T06:24:28;51.65;;;31.70;;
25511;SDS011;13414;44.534;18.700;2024-03-23T06:26:56;51.97;;;31.90;;
25511;SDS011;13414;44.534;18.700;2024-03-23T06:29:22;55.67;;;32.83;;
25511;SDS011;13414;44.534;18.700;2024-03-23T06:31:53;50.13;;;31.00;;
25511;SDS011;13414;44.534;18.700;2024-03-23T06:34:19;49.42;;;28.15;;
25511;SDS011;13414;44.534;18.700;2024-03-23T06:36:48;50.97;;;32.30;;
25511;SDS011;13414;44.534;18.700;2024-03-23T06:39:14;44.22;;;30.38;;
25511;SDS011;13414;44.534;18.700;2024-03-23T06:41:45;47.50;;;29.00;;
25511;SDS011;13414;44.534;18.700;2024-03-23T06:44:17;46.70;;;27.92;;
25511;SDS011;13414;44.534;18.700;2024-03-23T06:46:45;43.28;;;26.73;;
25511;SDS011;13414;44.534;18.700;2024-03-23T06:49:12;39.53;;;24.23;;
25511;SDS011;13414;44.534;18.700;2024-03-23T06:51:39;36.40;;;24.95;;
25511;SDS011;13414;44.534;18.700;2024-03-23T06:54:06;39.65;;;24.40;;
25511;SDS011;13414;44.534;18.700;2024-03-23T06:56:33;37.60;;;23.50;;
25511;SDS011;13414;44.534;18.700;2024-03-23T06:59:01;42.38;;;27.45;;
25511;SDS011;13414;44.534;18.700;2024-03-23T07:01:29;43.08;;;24.77;;
25511;SDS011;13414;44.534;18.700;2024-03-23T07:03:55;36.20;;;21.92;;
25511;SDS011;13414;44.534;18.700;2024-03-23T07:06:22;37.13;;;21.85;;
25511;SDS011;13414;44.534;18.700;2024-03-23T07:08:49;30.92;;;20.77;;
25511;SDS011;13414;44.534;18.700;2024-03-23T07:11:18;36.60;;;21.20;;
25511;SDS011;13414;44.534;18.700;2024-03-23T07:13:45;33.13;;;21.25;;
25511;SDS011;13414;44.534;18.700;2024-03-23T07:16:14;31.58;;;20.75;;
25511;SDS011;13414;44.534;18.700;2024-03-23T07:18:41;34.80;;;21.17;;
25511;SDS011;13414;44.534;18.700;2024-03-23T07:21:09;35.17;;;20.83;;
25511;SDS011;13414;44.534;18.700;2024-03-23T07:23:35;32.42;;;21.02;;
25511;SDS011;13414;44.534;18.700;2024-03-23T07:26:04;27.83;;;19.52;;
25511;SDS011;13414;44.534;18.700;2024-03-23T07:28:30;22.55;;;16.70;;
25511;SDS011;13414;44.534;18.700;2024-03-23T07:31:02;30.45;;;18.75;;
25511;SDS011;13414;44.534;18.700;2024-03-23T07:33:31;54.30;;;34.88;;
25511;SDS011;13414;44.534;18.700;2024-03-23T07:35:59;38.67;;;26.42;;
25511;SDS011;13414;44.534;18.700;2024-03-23T07:38:26;34.00;;;20.90;;
25511;SDS011;13414;44.534;18.700;2024-03-23T07:41:02;30.98;;;20.70;;
25511;SDS011;13414;44.534;18.700;2024-03-23T07:43:29;27.95;;;18.02;;
25511;SDS011;13414;44.534;18.700;2024-03-23T07:45:57;33.40;;;20.23;;
25511;SDS011;13414;44.534;18.700;2024-03-23T07:48:23;25.75;;;17.02;;
25511;SDS011;13414;44.534;18.700;2024-03-23T07:51:02;24.60;;;17.10;;
25511;SDS011;13414;44.534;18.700;2024-03-23T07:53:29;29.23;;;18.40;;
25511;SDS011;13414;44.534;18.700;2024-03-23T07:55:58;24.67;;;16.88;;
25511;SDS011;13414;44.534;18.700;2024-03-23T07:58:25;22.38;;;16.48;;
25511;SDS011;13414;44.534;18.700;2024-03-23T08:00:53;28.13;;;17.50;;
25511;SDS011;13414;44.534;18.700;2024-03-23T08:03:20;74.78;;;53.75;;
25511;SDS011;13414;44.534;18.700;2024-03-23T08:05:47;24.85;;;15.63;;
25511;SDS011;13414;44.534;18.700;2024-03-23T08:08:15;23.45;;;15.18;;
25511;SDS011;13414;44.534;18.700;2024-03-23T08:10:49;19.40;;;13.48;;
25511;SDS011;13414;44.534;18.700;2024-03-23T08:13:17;20.92;;;14.23;;
25511;SDS011;13414;44.534;18.700;2024-03-23T08:15:45;18.90;;;14.02;;
25511;SDS011;13414;44.534;18.700;2024-03-23T08:18:13;19.30;;;14.65;;
25511;SDS011;13414;44.534;18.700;2024-03-23T08:20:40;17.60;;;13.15;;
25511;SDS011;13414;44.534;18.700;2024-03-23T08:23:08;19.25;;;13.38;;
25511;SDS011;13414;44.534;18.700;2024-03-23T08:25:36;20.00;;;13.20;;
25511;SDS011;13414;44.534;18.700;2024-03-23T08:28:04;24.13;;;16.73;;
25511;SDS011;13414;44.534;18.700;2024-03-23T08:30:31;22.83;;;14.35;;
25511;SDS011;13414;44.534;18.700;2024-03-23T08:32:58;15.70;;;11.95;;
25511;SDS011;13414;44.534;18.700;2024-03-23T08:35:24;22.92;;;14.32;;
25511;SDS011;13414;44.534;18.700;2024-03-23T08:37:52;19.23;;;12.35;;
25511;SDS011;13414;44.534;18.700;2024-03-23T08:40:18;20.15;;;13.65;;
25511;SDS011;13414;44.534;18.700;2024-03-23T08:42:47;19.23;;;13.52;;
25511;SDS011;13414;44.534;18.700;2024-03-23T08:45:14;19.05;;;12.68;;
25511;SDS011;13414;44.534;18.700;2024-03-23T08:47:41;17.15;;;11.80;;
25511;SDS011;13414;44.534;18.700;2024-03-23T08:50:08;20.02;;;13.73;;
25511;SDS011;13414;44.534;18.700;2024-03-23T08:52:36;18.90;;;12.18;;
25511;SDS011;13414;44.534;18.700;2024-03-23T08:55:02;22.00;;;15.30;;
25511;SDS011;13414;44.534;18.700;2024-03-23T08:57:30;15.70;;;11.27;;
25511;SDS011;13414;44.534;18.700;2024-03-23T08:59:59;18.42;;;10.95;;
25511;SDS011;13414;44.534;18.700;2024-03-23T09:02:26;19.23;;;11.05;;
25511;SDS011;13414;44.534;18.700;2024-03-23T09:04:53;17.15;;;10.98;;
25511;SDS011;13414;44.534;18.700;2024-03-23T09:07:20;19.55;;;11.85;;
25511;SDS011;13414;44.534;18.700;2024-03-23T09:09:47;15.32;;;11.50;;
25511;SDS011;13414;44.534;18.700;2024-03-23T09:12:14;21.20;;;14.50;;
25511;SDS011;13414;44.534;18.700;2024-03-23T09:14:42;20.50;;;13.00;;
25511;SDS011;13414;44.534;18.700;2024-03-23T09:17:10;18.65;;;12.60;;
25511;SDS011;13414;44.534;18.700;2024-03-23T09:19:38;21.23;;;12.45;;
25511;SDS011;13414;44.534;18.700;2024-03-23T09:22:05;16.30;;;10.98;;
25511;SDS011;13414;44.534;18.700;2024-03-23T09:24:32;22.42;;;10.57;;
25511;SDS011;13414;44.534;18.700;2024-03-23T09:26:59;16.10;;;9.82;;
25511;SDS011;13414;44.534;18.700;2024-03-23T09:29:26;16.75;;;11.43;;
25511;SDS011;13414;44.534;18.700;2024-03-23T09:31:53;17.63;;;10.45;;
25511;SDS011;13414;44.534;18.700;2024-03-23T09:34:23;17.00;;;11.20;;
25511;SDS011;13414;44.534;18.700;2024-03-23T09:36:50;14.48;;;10.60;;
25511;SDS011;13414;44.534;18.700;2024-03-23T09:39:18;13.02;;;8.10;;
25511;SDS011;13414;44.534;18.700;2024-03-23T09:41:46;15.65;;;9.00;;
25511;SDS011;13414;44.534;18.700;2024-03-23T09:44:14;13.85;;;6.97;;
25511;SDS011;13414;44.534;18.700;2024-03-23T09:46:40;13.43;;;8.63;;
25511;SDS011;13414;44.534;18.700;2024-03-23T09:49:08;15.82;;;9.93;;
25511;SDS011;13414;44.534;18.700;2024-03-23T09:51:37;13.57;;;9.20;;
25511;SDS011;13414;44.534;18.700;2024-03-23T09:54:04;12.63;;;8.88;;
25511;SDS011;13414;44.534;18.700;2024-03-23T09:56:31;15.98;;;8.63;;
25511;SDS011;13414;44.534;18.700;2024-03-23T09:59:01;9.98;;;6.63;;
25511;SDS011;13414;44.534;18.700;2024-03-23T10:01:29;8.63;;;6.25;;
25511;SDS011;13414;44.534;18.700;2024-03-23T10:03:56;9.52;;;5.60;;
25511;SDS011;13414;44.534;18.700;2024-03-23T10:06:23;8.48;;;5.57;;
25511;SDS011;13414;44.534;18.700;2024-03-23T10:08:52;12.43;;;8.98;;
25511;SDS011;13414;44.534;18.700;2024-03-23T10:11:20;11.32;;;7.57;;
25511;SDS011;13414;44.534;18.700;2024-03-23T10:13:48;15.25;;;7.40;;
25511;SDS011;13414;44.534;18.700;2024-03-23T10:16:21;8.00;;;5.90;;
25511;SDS011;13414;44.534;18.700;2024-03-23T10:18:49;10.77;;;5.40;;
25511;SDS011;13414;44.534;18.700;2024-03-23T10:21:16;9.50;;;7.00;;
25511;SDS011;13414;44.534;18.700;2024-03-23T10:23:43;12.48;;;7.47;;
25511;SDS011;13414;44.534;18.700;2024-03-23T10:26:16;11.10;;;6.63;;
25511;SDS011;13414;44.534;18.700;2024-03-23T10:28:55;11.90;;;7.40;;
25511;SDS011;13414;44.534;18.700;2024-03-23T10:31:25;13.95;;;6.53;;
25511;SDS011;13414;44.534;18.700;2024-03-23T10:33:52;14.40;;;8.00;;
25511;SDS011;13414;44.534;18.700;2024-03-23T10:36:20;8.52;;;5.47;;
25511;SDS011;13414;44.534;18.700;2024-03-23T10:38:49;8.27;;;5.70;;
25511;SDS011;13414;44.534;18.700;2024-03-23T10:41:18;8.82;;;5.68;;
25511;SDS011;13414;44.534;18.700;2024-03-23T10:43:46;12.40;;;5.32;;
25511;SDS011;13414;44.534;18.700;2024-03-23T10:46:14;9.00;;;5.60;;
25511;SDS011;13414;44.534;18.700;2024-03-23T10:48:42;10.10;;;5.20;;
25511;SDS011;13414;44.534;18.700;2024-03-23T10:51:09;12.18;;;8.75;;
25511;SDS011;13414;44.534;18.700;2024-03-23T10:53:37;16.10;;;6.43;;
25511;SDS011;13414;44.534;18.700;2024-03-23T10:56:04;9.90;;;5.97;;
25511;SDS011;13414;44.534;18.700;2024-03-23T10:58:35;10.82;;;6.63;;
25511;SDS011;13414;44.534;18.700;2024-03-23T11:01:04;9.65;;;6.53;;
25511;SDS011;13414;44.534;18.700;2024-03-23T11:03:38;14.32;;;8.75;;
25511;SDS011;13414;44.534;18.700;2024-03-23T11:06:06;9.02;;;5.97;;
25511;SDS011;13414;44.534;18.700;2024-03-23T11:08:35;8.73;;;5.78;;
25511;SDS011;13414;44.534;18.700;2024-03-23T11:11:13;9.35;;;6.18;;
25511;SDS011;13414;44.534;18.700;2024-03-23T11:13:47;11.70;;;8.27;;
25511;SDS011;13414;44.534;18.700;2024-03-23T11:16:14;10.07;;;6.07;;
25511;SDS011;13414;44.534;18.700;2024-03-23T11:18:43;10.85;;;5.70;;
25511;SDS011;13414;44.534;18.700;2024-03-23T11:21:10;12.75;;;5.70;;
25511;SDS011;13414;44.534;18.700;2024-03-23T11:24:12;9.38;;;5.80;;
25511;SDS011;13414;44.534;18.700;2024-03-23T11:26:39;8.95;;;5.75;;
25511;SDS011;13414;44.534;18.700;2024-03-23T11:29:11;9.30;;;6.80;;
25511;SDS011;13414;44.534;18.700;2024-03-23T11:31:44;7.57;;;4.90;;
25511;SDS011;13414;44.534;18.700;2024-03-23T11:34:12;10.30;;;6.57;;
25511;SDS011;13414;44.534;18.700;2024-03-23T11:36:39;10.00;;;5.90;;
25511;SDS011;13414;44.534;18.700;2024-03-23T11:39:15;7.30;;;5.20;;
25511;SDS011;13414;44.534;18.700;2024-03-23T11:41:47;7.93;;;5.25;;
25511;SDS011;13414;44.534;18.700;2024-03-23T11:44:18;11.18;;;5.72;;
25511;SDS011;13414;44.534;18.700;2024-03-23T11:46:48;11.77;;;6.57;;
25511;SDS011;13414;44.534;18.700;2024-03-23T11:49:19;5.45;;;3.80;;
25511;SDS011;13414;44.534;18.700;2024-03-23T11:51:48;8.70;;;5.70;;
25511;SDS011;13414;44.534;18.700;2024-03-23T11:54:15;7.10;;;4.00;;
25511;SDS011;13414;44.534;18.700;2024-03-23T11:56:53;8.02;;;4.78;;
25511;SDS011;13414;44.534;18.700;2024-03-23T11:59:32;7.50;;;3.70;;
25511;SDS011;13414;44.534;18.700;2024-03-23T12:02:04;7.07;;;4.50;;
25511;SDS011;13414;44.534;18.700;2024-03-23T12:04:32;9.00;;;5.38;;
25511;SDS011;13414;44.534;18.700;2024-03-23T12:07:11;12.02;;;6.85;;
25511;SDS011;13414;44.534;18.700;2024-03-23T12:09:38;5.82;;;3.90;;
25511;SDS011;13414;44.534;18.700;2024-03-23T12:12:07;8.88;;;5.25;;
25511;SDS011;13414;44.534;18.700;2024-03-23T12:14:36;7.63;;;4.88;;
25511;SDS011;13414;44.534;18.700;2024-03-23T12:17:10;5.85;;;3.85;;
25511;SDS011;13414;44.534;18.700;2024-03-23T12:19:37;7.55;;;5.47;;
25511;SDS011;13414;44.534;18.700;2024-03-23T12:22:05;7.53;;;6.15;;
25511;SDS011;13414;44.534;18.700;2024-03-23T12:24:32;9.70;;;5.35;;
25511;SDS011;13414;44.534;18.700;2024-03-23T12:27:01;10.52;;;6.20;;
25511;SDS011;13414;44.534;18.700;2024-03-23T12:29:30;11.43;;;5.50;;
25511;SDS011;13414;44.534;18.700;2024-03-23T12:32:00;6.95;;;4.18;;
25511;SDS011;13414;44.534;18.700;2024-03-23T12:34:27;8.20;;;6.03;;
25511;SDS011;13414;44.534;18.700;2024-03-23T12:36:55;7.60;;;5.32;;
25511;SDS011;13414;44.534;18.700;2024-03-23T12:39:22;7.05;;;4.47;;
25511;SDS011;13414;44.534;18.700;2024-03-23T12:41:49;6.78;;;4.57;;
25511;SDS011;13414;44.534;18.700;2024-03-23T12:44:18;7.70;;;4.80;;
25511;SDS011;13414;44.534;18.700;2024-03-23T12:46:46;10.07;;;7.35;;
25511;SDS011;13414;44.534;18.700;2024-03-23T12:49:14;9.55;;;6.25;;
25511;SDS011;13414;44.534;18.700;2024-03-23T12:51:46;9.30;;;4.50;;
25511;SDS011;13414;44.534;18.700;2024-03-23T12:54:19;7.50;;;4.43;;
25511;SDS011;13414;44.534;18.700;2024-03-23T12:56:47;6.93;;;4.75;;
25511;SDS011;13414;44.534;18.700;2024-03-23T12:59:14;9.10;;;5.38;;
25511;SDS011;13414;44.534;18.700;2024-03-23T13:01:41;10.15;;;5.60;;
25511;SDS011;13414;44.534;18.700;2024-03-23T13:04:09;11.43;;;4.90;;
25511;SDS011;13414;44.534;18.700;2024-03-23T13:06:38;9.95;;;6.40;;
25511;SDS011;13414;44.534;18.700;2024-03-23T13:09:04;9.40;;;5.90;;
25511;SDS011;13414;44.534;18.700;2024-03-23T13:11:31;6.90;;;4.60;;
25511;SDS011;13414;44.534;18.700;2024-03-23T13:13:58;10.00;;;4.97;;
25511;SDS011;13414;44.534;18.700;2024-03-23T13:16:25;11.48;;;6.70;;
25511;SDS011;13414;44.534;18.700;2024-03-23T13:18:52;8.65;;;5.60;;
25511;SDS011;13414;44.534;18.700;2024-03-23T13:21:19;6.95;;;4.40;;
25511;SDS011;13414;44.534;18.700;2024-03-23T13:23:49;7.95;;;5.13;;
25511;SDS011;13414;44.534;18.700;2024-03-23T13:26:16;9.20;;;5.43;;
25511;SDS011;13414;44.534;18.700;2024-03-23T13:28:43;6.75;;;4.30;;
25511;SDS011;13414;44.534;18.700;2024-03-23T13:31:11;8.35;;;5.90;;
25511;SDS011;13414;44.534;18.700;2024-03-23T13:33:37;9.55;;;5.35;;
25511;SDS011;13414;44.534;18.700;2024-03-23T13:36:05;7.25;;;5.22;;
25511;SDS011;13414;44.534;18.700;2024-03-23T13:38:32;8.85;;;5.72;;
25511;SDS011;13414;44.534;18.700;2024-03-23T13:41:01;8.75;;;5.68;;
25511;SDS011;13414;44.534;18.700;2024-03-23T13:43:30;7.88;;;5.03;;
25511;SDS011;13414;44.534;18.700;2024-03-23T13:45:57;8.35;;;5.07;;
25511;SDS011;13414;44.534;18.700;2024-03-23T13:48:25;9.85;;;5.47;;
25511;SDS011;13414;44.534;18.700;2024-03-23T13:50:57;7.75;;;5.20;;
25511;SDS011;13414;44.534;18.700;2024-03-23T13:53:23;7.97;;;5.35;;
25511;SDS011;13414;44.534;18.700;2024-03-23T13:55:51;8.82;;;5.20;;
25511;SDS011;13414;44.534;18.700;2024-03-23T13:58:19;9.23;;;5.75;;
25511;SDS011;13414;44.534;18.700;2024-03-23T14:00:47;9.27;;;6.53;;
25511;SDS011;13414;44.534;18.700;2024-03-23T14:03:14;8.13;;;6.35;;
25511;SDS011;13414;44.534;18.700;2024-03-23T14:05:42;11.10;;;6.22;;
25511;SDS011;13414;44.534;18.700;2024-03-23T14:08:08;8.82;;;5.55;;
25511;SDS011;13414;44.534;18.700;2024-03-23T14:10:36;10.60;;;6.07;;
25511;SDS011;13414;44.534;18.700;2024-03-23T14:13:06;11.63;;;6.78;;
25511;SDS011;13414;44.534;18.700;2024-03-23T14:15:35;11.30;;;7.05;;
25511;SDS011;13414;44.534;18.700;2024-03-23T14:18:02;10.38;;;7.18;;
25511;SDS011;13414;44.534;18.700;2024-03-23T14:20:29;10.85;;;7.80;;
25511;SDS011;13414;44.534;18.700;2024-03-23T14:22:56;10.68;;;6.63;;
25511;SDS011;13414;44.534;18.700;2024-03-23T14:25:23;8.25;;;7.00;;
25511;SDS011;13414;44.534;18.700;2024-03-23T14:27:54;9.02;;;6.55;;
25511;SDS011;13414;44.534;18.700;2024-03-23T14:30:24;9.30;;;6.45;;
25511;SDS011;13414;44.534;18.700;2024-03-23T14:32:52;9.90;;;6.55;;
25511;SDS011;13414;44.534;18.700;2024-03-23T14:35:19;9.10;;;7.22;;
25511;SDS011;13414;44.534;18.700;2024-03-23T14:37:45;11.82;;;7.88;;
25511;SDS011;13414;44.534;18.700;2024-03-23T14:40:13;11.52;;;8.13;;
25511;SDS011;13414;44.534;18.700;2024-03-23T14:42:40;13.98;;;8.65;;
25511;SDS011;13414;44.534;18.700;2024-03-23T14:45:08;9.98;;;7.45;;
25511;SDS011;13414;44.534;18.700;2024-03-23T14:47:34;11.50;;;7.78;;
25511;SDS011;13414;44.534;18.700;2024-03-23T14:50:04;10.88;;;7.63;;
25511;SDS011;13414;44.534;18.700;2024-03-23T14:52:33;9.45;;;7.35;;
25511;SDS011;13414;44.534;18.700;2024-03-23T14:55:01;14.32;;;8.43;;
25511;SDS011;13414;44.534;18.700;2024-03-23T14:57:28;10.77;;;7.47;;
25511;SDS011;13414;44.534;18.700;2024-03-23T14:59:55;9.32;;;6.72;;
25511;SDS011;13414;44.534;18.700;2024-03-23T15:02:22;9.90;;;6.50;;
25511;SDS011;13414;44.534;18.700;2024-03-23T15:04:49;8.80;;;6.70;;
25511;SDS011;13414;44.534;18.700;2024-03-23T15:07:17;10.43;;;7.05;;
25511;SDS011;13414;44.534;18.700;2024-03-23T15:09:44;9.13;;;6.15;;
25511;SDS011;13414;44.534;18.700;2024-03-23T15:12:11;11.30;;;6.57;;